Time;durP1;ratioP1;P1;durP2;ratioP2;P2;SDS_P1;SDS_P2;PMS_P1;PMS_P2;Temp;Humidity;BMP_temperature;BMP_pressure;BME280_temperature;BME280_humidity;BME280_pressure;Samples;Min_cycle;Max_cycle;Signal;HPM_P1;HPM_P2
2023/06/16 00:00:11;;;;;;;8.48;7.47;;;;;;;17.61;100.00;64822.28;5072743;28;20289;-57
2023/06/16 00:02:41;;;;;;;9.52;7.57;;;;;;;17.66;100.00;64829.81;5072746;28;20222;-57
2023/06/16 00:05:09;;;;;;;10.85;8.40;;;;;;;17.78;100.00;64837.94;5072868;28;20271;-57
2023/06/16 00:07:36;;;;;;;9.98;7.78;;;;;;;17.75;100.00;64834.09;5072660;28;20189;-58
2023/06/16 00:10:08;;;;;;;9.63;7.38;;;;;;;17.83;100.00;64846.00;5072534;28;20205;-57
2023/06/16 00:12:35;;;;;;;9.10;7.63;;;;;;;17.66;100.00;64826.69;5072493;28;20197;-59
2023/06/16 00:15:01;;;;;;;10.63;7.85;;;;;;;17.86;100.00;64846.75;5072639;28;20262;-57
2023/06/16 00:17:27;;;;;;;9.93;7.65;;;;;;;17.90;100.00;64855.72;5072444;28;20620;-58
2023/06/16 00:19:59;;;;;;;10.10;8.05;;;;;;;17.92;100.00;64855.91;5072479;28;20220;-61
2023/06/16 00:22:27;;;;;;;8.77;7.88;;;;;;;17.93;100.00;64856.47;5072791;28;20575;-58
2023/06/16 00:24:53;;;;;;;9.25;7.38;;;;;;;17.97;100.00;64858.91;5071960;28;20718;-57
2023/06/16 00:27:22;;;;;;;10.60;8.80;;;;;;;18.07;100.00;64871.91;5072496;28;20264;-58
2023/06/16 00:29:48;;;;;;;10.65;8.63;;;;;;;18.09;100.00;64876.66;5072518;28;20299;-57
2023/06/16 00:32:14;;;;;;;10.25;8.50;;;;;;;18.08;100.00;64873.03;5072368;28;20669;-58
2023/06/16 00:34:39;;;;;;;11.50;9.05;;;;;;;18.06;100.00;64870.81;5072590;28;20212;-59
2023/06/16 00:37:04;;;;;;;10.88;8.98;;;;;;;17.86;100.00;64846.75;5072482;28;20599;-57
2023/06/16 00:39:30;;;;;;;11.68;9.82;;;;;;;17.81;100.00;64843.25;5072421;28;20219;-58
2023/06/16 00:41:55;;;;;;;11.93;9.52;;;;;;;17.72;100.00;64835.88;5072203;28;20309;-58
2023/06/16 00:44:21;;;;;;;11.93;9.30;;;;;;;17.82;100.00;64842.34;5071957;28;20636;-58
2023/06/16 00:46:46;;;;;;;10.40;9.25;;;;;;;17.83;100.00;64843.47;5071328;28;20694;-58
2023/06/16 00:49:12;;;;;;;14.40;10.85;;;;;;;17.67;100.00;64825.28;5072201;28;20216;-57
2023/06/16 00:51:37;;;;;;;11.77;10.57;;;;;;;17.79;100.00;64839.06;5072024;28;20184;-58
2023/06/16 00:54:03;;;;;;;12.95;10.43;;;;;;;17.75;100.00;64837.19;5072124;28;20231;-62
2023/06/16 00:56:29;;;;;;;13.82;10.65;;;;;;;17.67;100.00;64827.81;5071847;28;20192;-57
2023/06/16 00:58:55;;;;;;;12.55;10.80;;;;;;;17.82;100.00;64844.34;5071894;28;20200;-58
2023/06/16 01:01:24;;;;;;;12.02;10.48;;;;;;;17.95;100.00;64861.78;5071866;28;20185;-58
2023/06/16 01:03:51;;;;;;;15.23;10.68;;;;;;;17.96;100.00;64857.78;5071737;28;20216;-57
2023/06/16 01:06:43;;;;;;;13.10;10.68;;;;;;;17.98;100.00;64859.44;5071591;28;20215;-61
2023/06/16 01:09:41;;;;;;;13.98;11.32;;;;;;;17.94;100.00;64857.56;5071603;28;20220;-60
2023/06/16 01:12:52;;;;;;;14.98;10.77;;;;;;;17.98;100.00;64861.97;5071527;28;20213;-62
2023/06/16 01:15:22;;;;;;;13.32;10.20;;;;;;;18.13;100.00;64881.06;5027046;28;20209;-61
2023/06/16 01:17:54;;;;;;;13.95;10.52;;;;;;;18.06;100.00;64873.38;5071973;28;20215;-60
2023/06/16 01:20:22;;;;;;;14.77;9.98;;;;;;;17.93;100.00;64853.94;5053509;28;20206;-58
2023/06/16 01:23:06;;;;;;;13.93;10.85;;;;;;;17.91;100.00;64854.81;5071339;28;20200;-57
2023/06/16 01:25:33;;;;;;;13.57;10.52;;;;;;;17.98;100.00;64862.53;5070765;28;20583;-58
2023/06/16 01:28:03;;;;;;;15.52;10.80;;;;;;;18.02;100.00;64866.38;5071045;28;20211;-58
2023/06/16 01:30:32;;;;;;;13.23;11.65;;;;;;;18.01;100.00;64862.75;5071478;28;20567;-60
2023/06/16 01:33:00;;;;;;;19.35;13.35;;;;;;;18.16;100.00;64879.28;5071529;28;20192;-62
2023/06/16 01:35:26;;;;;;;14.48;12.50;;;;;;;18.09;100.00;64877.22;5071464;28;20197;-58
2023/06/16 01:37:53;;;;;;;15.48;11.55;;;;;;;18.08;100.00;64873.56;5071278;28;20700;-58
2023/06/16 01:40:19;;;;;;;16.75;13.00;;;;;;;17.96;100.00;64857.78;5071249;28;20189;-60
2023/06/16 01:42:48;;;;;;;14.77;11.73;;;;;;;18.13;100.00;64876.53;5071231;28;20263;-61
2023/06/16 01:45:15;;;;;;;19.15;12.80;;;;;;;18.04;100.00;64868.63;5053135;28;20311;-57
2023/06/16 01:47:42;;;;;;;14.43;12.02;;;;;;;18.02;100.00;64866.94;5071119;28;20190;-58
2023/06/16 01:50:08;;;;;;;17.17;12.95;;;;;;;18.07;100.00;64874.47;5071191;28;20595;-60
2023/06/16 01:52:34;;;;;;;15.95;13.32;;;;;;;18.05;100.00;64869.72;5071033;28;20192;-58
2023/06/16 01:54:59;;;;;;;16.08;12.82;;;;;;;17.91;100.00;64854.81;5070813;28;20277;-60
2023/06/16 01:57:27;;;;;;;14.23;12.18;;;;;;;18.05;100.00;64869.72;5070174;28;20283;-58
2023/06/16 02:00:11;;;;;;;16.40;12.68;;;;;;;18.22;100.00;64886.44;5071147;28;20217;-57
2023/06/16 02:02:42;;;;;;;17.98;12.70;;;;;;;18.15;100.00;64878.19;5071051;28;20231;-58
2023/06/16 02:05:11;;;;;;;18.85;11.95;;;;;;;18.12;100.00;64880.53;5070900;28;20221;-58
2023/06/16 02:07:42;;;;;;;15.23;11.75;;;;;;;18.25;100.00;64894.31;5070910;28;20620;-58
2023/06/16 02:10:09;;;;;;;16.38;11.90;;;;;;;18.20;100.00;64884.25;5070842;28;20205;-58
2023/06/16 02:12:35;;;;;;;15.02;11.80;;;;;;;18.15;100.00;64883.28;5070584;28;20189;-57
2023/06/16 02:15:01;;;;;;;15.43;12.68;;;;;;;18.15;100.00;64878.19;5070733;28;20299;-61
2023/06/16 02:17:27;;;;;;;14.93;11.77;;;;;;;18.15;100.00;64878.75;5070551;28;20215;-61
2023/06/16 02:19:54;;;;;;;12.55;10.85;;;;;;;18.10;100.00;64875.75;5053010;28;20689;-58
2023/06/16 02:22:19;;;;;;;13.70;11.20;;;;;;;18.21;100.00;64887.91;5070572;28;20192;-58
2023/06/16 02:24:46;;;;;;;13.35;10.40;;;;;;;18.24;100.00;64888.66;5070821;28;20217;-57
2023/06/16 02:27:13;;;;;;;12.18;9.93;;;;;;;18.29;100.00;64896.16;5070873;28;20200;-58
2023/06/16 02:29:39;;;;;;;11.35;9.48;;;;;;;18.36;100.00;64901.88;5070822;28;20274;-57
2023/06/16 02:32:05;;;;;;;10.80;9.70;;;;;;;18.29;100.00;64894.19;5070722;28;20267;-57
2023/06/16 02:34:30;;;;;;;9.98;8.80;;;;;;;18.32;100.00;64900.03;5052650;28;20763;-57
2023/06/16 02:36:56;;;;;;;12.18;8.88;;;;;;;18.30;100.00;64897.81;5070464;28;20223;-58
2023/06/16 02:39:22;;;;;;;10.30;8.32;;;;;;;18.41;100.00;64907.41;5070350;28;20694;-59
2023/06/16 02:41:48;;;;;;;10.82;7.88;;;;;;;18.36;100.00;64901.34;5070242;28;20221;-57
2023/06/16 02:44:13;;;;;;;13.50;8.02;;;;;;;18.20;100.00;64883.72;5070633;28;20579;-57
2023/06/16 02:46:39;;;;;;;10.52;8.13;;;;;;;18.17;100.00;64886.03;5070480;28;20185;-57
2023/06/16 02:49:04;;;;;;;10.05;8.27;;;;;;;18.13;100.00;64878.53;5070534;28;20204;-58
2023/06/16 02:51:30;;;;;;;11.45;7.70;;;;;;;18.08;100.00;64871.00;5070245;28;20189;-61
2023/06/16 02:53:55;;;;;;;9.25;7.90;;;;;;;18.02;100.00;64866.94;5070116;28;20274;-57
2023/06/16 02:56:21;;;;;;;10.85;8.88;;;;;;;18.06;100.00;64870.81;5070197;28;20224;-58
2023/06/16 02:58:47;;;;;;;9.45;7.95;;;;;;;18.05;100.00;64867.72;5070032;28;20698;-57
2023/06/16 03:01:14;;;;;;;9.10;8.07;;;;;;;18.09;100.00;64872.13;5070192;28;20196;-59
2023/06/16 03:03:39;;;;;;;9.68;8.25;;;;;;;18.22;100.00;64889.00;5070321;28;20776;-58
2023/06/16 03:06:05;;;;;;;9.40;7.85;;;;;;;18.38;100.00;64908.66;5070170;28;20189;-57
2023/06/16 03:08:30;;;;;;;11.65;9.40;;;;;;;18.24;100.00;64891.19;5070505;28;20590;-60
2023/06/16 03:10:56;;;;;;;9.68;8.65;;;;;;;18.24;100.00;64891.19;5073608;28;20176;-61
2023/06/16 03:13:21;;;;;;;11.20;8.60;;;;;;;18.24;100.00;64891.19;5073742;28;20220;-58
2023/06/16 03:15:47;;;;;;;13.48;9.15;;;;;;;18.19;100.00;64883.16;5072227;28;20189;-58
2023/06/16 03:18:12;;;;;;;10.65;9.20;;;;;;;18.17;100.00;64882.94;5073059;28;20244;-57
2023/06/16 03:20:40;;;;;;;14.50;9.45;;;;;;;18.24;100.00;64888.66;5073240;28;20192;-57
2023/06/16 03:23:05;;;;;;;12.02;10.52;;;;;;;18.19;100.00;64885.69;5038855;28;20755;-57
2023/06/16 03:25:32;;;;;;;12.07;9.90;;;;;;;18.17;100.00;64886.03;5073310;28;20236;-57
2023/06/16 03:27:58;;;;;;;13.90;11.30;;;;;;;18.19;100.00;64885.69;5073382;28;20693;-58
2023/06/16 03:30:24;;;;;;;17.10;12.15;;;;;;;18.25;100.00;64891.75;5073213;28;20706;-61
2023/06/16 03:32:50;;;;;;;15.98;12.55;;;;;;;18.27;100.00;64893.97;5073061;28;20215;-60
2023/06/16 03:35:17;;;;;;;15.68;12.40;;;;;;;18.11;100.00;64876.88;5072525;28;20219;-59
2023/06/16 03:37:43;;;;;;;16.63;13.40;;;;;;;18.17;100.00;64880.94;5072850;28;20299;-61
2023/06/16 03:40:09;;;;;;;18.27;14.43;;;;;;;18.30;100.00;64897.81;5073001;28;20720;-60
2023/06/16 03:42:35;;;;;;;23.02;16.30;;;;;;;18.06;100.00;64868.28;5071876;28;20613;-56
2023/06/16 03:45:01;;;;;;;23.80;15.07;;;;;;;18.23;100.00;64890.13;5072986;28;20214;-57
2023/06/16 03:47:26;;;;;;;23.92;16.13;;;;;;;18.26;100.00;64890.84;5072790;28;20637;-58
2023/06/16 03:49:53;;;;;;;24.25;16.33;;;;;;;18.27;100.00;64891.97;5073517;28;20208;-58
2023/06/16 03:52:19;;;;;;;21.45;16.02;;;;;;;18.23;100.00;64887.56;5072997;28;20250;-61
2023/06/16 03:54:45;;;;;;;23.58;16.52;;;;;;;18.05;100.00;64867.16;5073165;28;20209;-57
2023/06/16 03:57:12;;;;;;;24.88;17.73;;;;;;;18.20;100.00;64884.25;5072768;28;20213;-61
2023/06/16 03:59:38;;;;;;;22.08;16.83;;;;;;;18.27;100.00;64894.53;5072897;28;20220;-59
2023/06/16 04:02:07;;;;;;;22.38;15.45;;;;;;;18.43;100.00;64909.63;5072727;28;20269;-58
2023/06/16 04:04:36;;;;;;;26.63;17.27;;;;;;;18.33;100.00;64898.03;5072991;28;20642;-58
2023/06/16 04:07:03;;;;;;;25.92;16.67;;;;;;;18.32;100.00;64896.94;5072562;28;20209;-57
2023/06/16 04:09:32;;;;;;;22.00;16.70;;;;;;;18.33;100.00;64900.59;5072497;28;20220;-58
2023/06/16 04:11:58;;;;;;;27.05;17.15;;;;;;;18.19;100.00;64882.59;5072510;28;20208;-58
2023/06/16 04:14:24;;;;;;;28.13;15.85;;;;;;;18.30;100.00;64894.72;5072737;28;20356;-60
2023/06/16 04:16:49;;;;;;;20.88;15.23;;;;;;;18.16;100.00;64882.38;5072464;28;20315;-62
2023/06/16 04:19:15;;;;;;;18.85;13.25;;;;;;;18.16;100.00;64882.38;5072621;28;20216;-58
2023/06/16 04:21:41;;;;;;;20.17;12.73;;;;;;;18.21;100.00;64887.91;5071719;28;20250;-60
2023/06/16 04:24:07;;;;;;;12.73;10.32;;;;;;;18.23;100.00;64890.13;5072491;28;20595;-58
2023/06/16 04:26:33;;;;;;;13.57;10.82;;;;;;;18.27;100.00;64891.97;5072467;28;20200;-57
2023/06/16 04:29:03;;;;;;;16.52;13.70;;;;;;;18.43;100.00;64909.09;5072291;28;20226;-58
2023/06/16 04:31:30;;;;;;;30.13;26.92;;;;;;;18.01;100.00;64865.28;5054585;28;20205;-61
2023/06/16 04:33:58;;;;;;;31.05;26.30;;;;;;;18.24;100.00;64893.75;5072546;28;20212;-58
2023/06/16 04:36:25;;;;;;;44.75;39.83;;;;;;;18.44;100.00;64913.28;5072174;28;20228;-57
2023/06/16 04:38:52;;;;;;;49.35;41.65;;;;;;;18.50;100.00;64916.81;5072212;28;20303;-57
2023/06/16 04:41:17;;;;;;;39.53;33.03;;;;;;;18.26;100.00;64890.84;5072056;28;20281;-58
2023/06/16 04:43:43;;;;;;;27.60;24.67;;;;;;;18.35;100.00;64900.78;5071826;28;20213;-61
2023/06/16 04:46:08;;;;;;;22.00;18.98;;;;;;;18.40;100.00;64911.41;5072129;28;20177;-57
2023/06/16 04:48:34;;;;;;;19.23;13.43;;;;;;;18.42;100.00;64907.97;5072309;28;20281;-57
2023/06/16 04:50:59;;;;;;;13.40;10.88;;;;;;;18.67;100.00;64937.56;5072125;28;20279;-58
2023/06/16 04:53:26;;;;;;;13.65;10.40;;;;;;;18.53;100.00;64920.13;5071857;28;20226;-61
2023/06/16 04:55:51;;;;;;;12.75;11.02;;;;;;;18.51;100.00;64919.91;5053878;28;20204;-61
2023/06/16 04:58:17;;;;;;;13.13;10.85;;;;;;;18.37;100.00;64905.56;5071998;28;20254;-57
2023/06/16 05:00:43;;;;;;;11.98;10.63;;;;;;;18.36;100.00;64901.88;5071686;28;20604;-58
2023/06/16 05:03:08;;;;;;;10.95;9.65;;;;;;;18.29;100.00;64894.19;5071894;28;20211;-57
2023/06/16 05:05:33;;;;;;;12.25;9.65;;;;;;;18.31;100.00;64898.38;5071869;28;20209;-61
2023/06/16 05:07:59;;;;;;;16.85;10.65;;;;;;;18.30;100.00;64894.72;5071773;28;20262;-58
2023/06/16 05:10:24;;;;;;;12.50;9.80;;;;;;;18.30;100.00;64897.81;5071662;28;20235;-58
2023/06/16 05:12:49;;;;;;;14.63;10.63;;;;;;;18.21;100.00;64887.34;5053894;28;20216;-58
2023/06/16 05:15:15;;;;;;;14.05;10.57;;;;;;;18.35;100.00;64900.25;5071549;28;20205;-58
2023/06/16 05:17:40;;;;;;;14.93;10.77;;;;;;;18.31;100.00;64898.38;5071487;28;20254;-57
2023/06/16 05:20:06;;;;;;;14.25;10.70;;;;;;;18.31;100.00;64898.94;5071459;28;20227;-58
2023/06/16 05:22:32;;;;;;;12.95;10.90;;;;;;;18.39;100.00;64905.22;5071383;28;20694;-58
2023/06/16 05:24:58;;;;;;;18.33;10.75;;;;;;;18.56;100.00;64928.53;5071573;28;20204;-58
2023/06/16 05:27:24;;;;;;;13.63;11.52;;;;;;;18.47;100.00;64912.94;5071470;28;20661;-61
2023/06/16 05:29:51;;;;;;;14.88;10.85;;;;;;;18.43;100.00;64909.63;5071538;28;20215;-61
2023/06/16 05:32:19;;;;;;;13.23;11.43;;;;;;;18.59;100.00;64928.72;5071276;28;20682;-60
2023/06/16 05:34:45;;;;;;;13.27;11.20;;;;;;;18.61;100.00;64928.38;5071346;28;20223;-59
2023/06/16 05:37:15;;;;;;;12.73;10.70;;;;;;;18.58;100.00;64925.63;5071154;28;20217;-58
2023/06/16 05:39:41;;;;;;;11.13;9.82;;;;;;;18.77;100.00;64948.59;5071169;28;20212;-62
2023/06/16 05:42:06;;;;;;;11.32;9.55;;;;;;;18.65;100.00;64932.78;5071224;28;20208;-57
2023/06/16 05:44:32;;;;;;;11.45;9.45;;;;;;;18.79;100.00;64948.78;5071518;28;20244;-61
2023/06/16 05:46:58;;;;;;;11.35;9.70;;;;;;;18.81;100.00;64950.44;5071170;28;20168;-58
2023/06/16 05:49:24;;;;;;;10.65;9.65;;;;;;;18.99;100.00;64973.41;5053398;28;20236;-61
2023/06/16 05:51:51;;;;;;;14.15;9.80;;;;;;;18.98;100.00;64969.22;5071395;28;20239;-58
2023/06/16 05:54:17;;;;;;;12.80;11.45;;;;;;;19.11;100.00;64983.53;5069381;28;20251;-61
2023/06/16 05:56:42;;;;;;;12.20;10.80;;;;;;;19.13;100.00;64986.31;5068962;28;20280;-58
2023/06/16 05:59:07;;;;;;;10.25;8.55;;;;;;;19.19;100.00;64992.38;5069754;28;20223;-57
2023/06/16 06:01:34;;;;;;;12.57;8.57;;;;;;;19.30;100.00;65007.09;5070382;28;20205;-59
2023/06/16 06:03:59;;;;;;;9.27;8.38;;;;;;;19.41;100.00;65016.69;5070688;28;20686;-62
2023/06/16 06:06:25;;;;;;;12.52;11.25;;;;;;;19.23;100.00;64996.78;5071079;28;20188;-59
2023/06/16 06:08:50;;;;;;;10.75;9.35;;;;;;;19.43;100.00;65018.91;5071095;28;20569;-59
2023/06/16 06:11:16;;;;;;;9.68;8.60;;;;;;;19.70;100.00;65050.72;5070891;28;20196;-58
2023/06/16 06:13:41;;;;;;;11.20;8.40;;;;;;;19.64;100.00;65042.09;5070826;28;20209;-58
2023/06/16 06:16:07;;;;;;;10.48;7.78;;;;;;;19.53;100.00;65029.41;5070885;28;20185;-61
2023/06/16 06:18:32;;;;;;;8.68;7.78;;;;;;;19.51;100.00;65027.19;5070825;28;20702;-58
2023/06/16 06:20:58;;;;;;;8.57;7.78;;;;;;;19.62;100.00;65039.88;5070822;28;20249;-59
2023/06/16 06:23:23;;;;;;;11.13;8.05;;;;;;;19.65;100.00;65042.66;5070562;28;20212;-58
2023/06/16 06:25:49;;;;;;;10.10;7.88;;;;;;;19.64;100.00;65042.09;5070503;28;20208;-59
2023/06/16 06:28:15;;;;;;;10.57;7.78;;;;;;;19.43;100.00;65018.34;5070711;28;20228;-60
2023/06/16 06:30:40;;;;;;;10.90;8.35;;;;;;;19.73;100.00;65052.03;5065303;28;20284;-61
2023/06/16 06:33:05;;;;;;;9.82;8.82;;;;;;;20.10;100.00;65089.78;5050486;28;20241;-58
2023/06/16 06:35:31;;;;;;;11.95;9.07;;;;;;;20.81;100.00;65170.81;5050490;28;20294;-58
2023/06/16 06:37:56;;;;;;;10.55;7.75;;;;;;;21.07;100.00;65198.47;5050478;28;20264;-58
2023/06/16 06:40:22;;;;;;;8.20;6.65;;;;;;;21.33;100.00;65225.22;5050589;28;20209;-57
2023/06/16 06:42:47;;;;;;;8.20;7.00;;;;;;;21.53;100.00;65252.47;5050372;28;20206;-59
2023/06/16 06:45:14;;;;;;;9.85;7.57;;;;;;;21.49;100.00;65244.94;5052686;28;20226;-57
2023/06/16 06:47:39;;;;;;;10.40;6.30;;;;;;;21.31;100.00;65225.56;5053913;28;20185;-57
2023/06/16 06:50:05;;;;;;;10.63;7.10;;;;;;;21.42;100.00;65234.63;5053963;28;20297;-59
2023/06/16 06:52:31;;;;;;;8.80;6.97;;;;;;;21.53;100.00;65247.31;5069320;28;20209;-58
2023/06/16 06:54:56;;;;;;;9.15;7.07;;;;;;;21.75;100.00;65273.69;5053650;28;20220;-62
2023/06/16 06:57:23;;;;;;;9.68;6.75;;;;;;;21.64;100.00;65261.50;5053761;28;20286;-58
2023/06/16 06:59:48;;;;;;;9.95;7.45;;;;;;;21.54;100.00;65248.44;5035710;28;20224;-60
2023/06/16 07:02:14;;;;;;;10.05;7.85;;;;;;;21.07;100.00;65199.03;5053848;28;20662;-58
2023/06/16 07:04:42;;;;;;;8.52;7.68;;;;;;;20.59;100.00;65145.94;5035718;28;20266;-57
2023/06/16 07:07:08;;;;;;;10.80;8.95;;;;;;;20.41;100.00;65126.59;5053542;28;20202;-59
2023/06/16 07:09:33;;;;;;;10.50;9.23;;;;;;;20.37;100.00;65121.63;5053439;28;20279;-58
2023/06/16 07:11:59;;;;;;;11.18;9.57;;;;;;;20.25;100.00;65108.38;5053566;28;20197;-59
2023/06/16 07:14:26;;;;;;;13.13;11.30;;;;;;;20.01;100.00;65082.41;5054041;28;20256;-58
2023/06/16 07:16:51;;;;;;;18.50;11.63;;;;;;;20.20;100.00;65105.97;5053310;28;20347;-58
2023/06/16 07:19:17;;;;;;;13.90;12.00;;;;;;;20.10;100.00;65090.31;5053838;28;20233;-61
2023/06/16 07:21:42;;;;;;;20.52;13.23;;;;;;;20.16;100.00;65098.41;5053328;28;20585;-58
2023/06/16 07:24:08;;;;;;;15.45;12.27;;;;;;;20.37;100.00;65122.19;5053356;28;20722;-58
2023/06/16 07:26:33;;;;;;;15.88;12.55;;;;;;;20.35;100.00;65119.97;5053153;28;20671;-57
2023/06/16 07:29:02;;;;;;;14.93;12.13;;;;;;;20.19;100.00;65102.31;5053358;28;20710;-60
2023/06/16 07:31:27;;;;;;;14.15;11.02;;;;;;;20.18;100.00;65100.63;5053198;28;20698;-60
2023/06/16 07:33:53;;;;;;;14.50;11.05;;;;;;;20.08;100.00;65090.69;5053297;28;20218;-58
2023/06/16 07:36:18;;;;;;;14.48;12.05;;;;;;;20.25;100.00;65108.94;5053183;28;20198;-61
2023/06/16 07:38:44;;;;;;;13.45;10.75;;;;;;;20.02;100.00;65080.94;5053220;28;20217;-58
2023/06/16 07:41:09;;;;;;;13.57;11.60;;;;;;;20.10;100.00;65089.78;5053186;28;20189;-59
2023/06/16 07:43:35;;;;;;;14.52;12.18;;;;;;;20.02;100.00;65083.50;5052615;28;20657;-57
2023/06/16 07:46:01;;;;;;;15.80;11.75;;;;;;;20.00;100.00;65084.41;5064171;28;20200;-57
2023/06/16 07:48:26;;;;;;;15.15;12.02;;;;;;;20.14;100.00;65096.75;5072973;28;20290;-58
2023/06/16 07:50:59;;;;;;;15.55;13.60;;;;;;;20.32;100.00;65116.13;5072260;28;20628;-61
2023/06/16 07:53:24;;;;;;;17.60;13.60;;;;;;;20.44;100.00;65129.38;5071075;28;20232;-61
2023/06/16 07:55:51;;;;;;;17.63;14.57;;;;;;;20.74;100.00;65157.41;5052043;28;20696;-62
2023/06/16 07:58:16;;;;;;;14.15;12.63;;;;;;;21.01;100.00;65189.28;5072417;28;20213;-61
2023/06/16 08:00:42;;;;;;;15.98;12.43;;;;;;;21.02;100.00;65193.50;5072712;28;20212;-61
2023/06/16 08:03:07;;;;;;;15.45;13.35;;;;;;;21.05;100.00;65196.81;5072747;28;20216;-57
2023/06/16 08:05:32;;;;;;;14.82;12.68;;;;;;;20.92;100.00;65182.44;5072655;28;20200;-58
2023/06/16 08:07:58;;;;;;;16.08;13.68;;;;;;;21.02;100.00;65193.50;5054506;28;20196;-57
2023/06/16 08:10:23;;;;;;;15.50;12.85;;;;;;;20.89;100.00;65182.22;5072627;28;20226;-58
2023/06/16 08:12:49;;;;;;;16.08;14.27;;;;;;;20.97;100.00;65187.41;5072391;28;20721;-57
2023/06/16 08:15:16;;;;;;;17.27;14.13;;;;;;;20.83;100.00;65172.47;5054325;28;20209;-57
2023/06/16 08:17:41;;;;;;;16.38;13.93;;;;;;;20.64;100.00;65154.03;5072471;28;20208;-57
2023/06/16 08:20:07;;;;;;;15.48;13.88;;;;;;;20.61;100.00;65150.72;5072207;28;20213;-57
2023/06/16 08:22:33;;;;;;;17.75;15.35;;;;;;;20.35;100.00;65116.88;5072227;28;20197;-57
2023/06/16 08:24:58;;;;;;;18.10;15.25;;;;;;;20.53;100.00;65139.88;5072371;28;20303;-57
2023/06/16 08:27:25;;;;;;;19.48;14.77;;;;;;;20.53;100.00;65139.88;5072179;28;20204;-57
2023/06/16 08:29:50;;;;;;;19.95;15.38;;;;;;;20.46;100.00;65131.59;5072192;28;20216;-56
2023/06/16 08:32:16;;;;;;;16.77;14.75;;;;;;;20.33;100.00;65117.22;5072327;28;20200;-63
2023/06/16 08:34:41;;;;;;;21.20;15.73;;;;;;;20.54;100.00;65143.00;5072144;28;20204;-59
2023/06/16 08:37:07;;;;;;;20.27;15.60;;;;;;;20.50;100.00;65136.53;5072059;28;20209;-60
2023/06/16 08:39:33;;;;;;;19.65;15.43;;;;;;;20.54;100.00;65140.97;5072163;28;20209;-58
2023/06/16 08:42:00;;;;;;;18.73;15.85;;;;;;;20.53;100.00;65139.31;5072309;28;20205;-56
2023/06/16 08:44:26;;;;;;;18.73;15.35;;;;;;;20.63;100.00;65147.81;5072457;28;20300;-57
2023/06/16 08:46:52;;;;;;;17.58;14.90;;;;;;;20.45;100.00;65131.03;5054035;28;20250;-57
2023/06/16 08:49:18;;;;;;;18.67;14.98;;;;;;;20.72;100.00;65155.19;5072098;28;20209;-57
2023/06/16 08:51:49;;;;;;;17.73;14.25;;;;;;;20.66;100.00;65151.69;5071902;28;20240;-57
2023/06/16 08:54:18;;;;;;;16.02;13.60;;;;;;;20.79;100.00;65170.59;5071824;28;20273;-56
2023/06/16 08:56:44;;;;;;;16.45;14.10;;;;;;;20.86;100.00;65176.34;5071842;28;20239;-56
2023/06/16 08:59:11;;;;;;;17.02;13.75;;;;;;;20.88;100.00;65178.00;5071778;28;20212;-58
2023/06/16 09:01:39;;;;;;;16.50;14.38;;;;;;;21.02;100.00;65192.94;5071895;28;20205;-57
2023/06/16 09:04:08;;;;;;;16.50;14.80;;;;;;;20.85;100.00;65172.13;5071666;28;20213;-57
2023/06/16 09:06:35;;;;;;;20.70;15.80;;;;;;;21.17;100.00;65209.53;5071109;28;20200;-57
2023/06/16 09:09:00;;;;;;;17.10;14.57;;;;;;;21.06;100.00;65197.94;5071474;28;20224;-56
2023/06/16 09:11:26;;;;;;;20.15;14.35;;;;;;;21.00;100.00;65188.72;5071112;28;20276;-57
2023/06/16 09:13:52;;;;;;;18.35;14.77;;;;;;;20.92;100.00;65185.56;5071572;28;20705;-57
2023/06/16 09:16:21;;;;;;;14.85;11.10;;;;;;;20.88;100.00;65178.56;5071766;28;20624;-57
2023/06/16 09:18:47;;;;;;;15.48;13.43;;;;;;;20.82;100.00;65171.38;5071305;28;20217;-59
2023/06/16 09:21:18;;;;;;;15.48;12.70;;;;;;;21.05;100.00;65191.69;5071522;28;20254;-60
2023/06/16 09:23:43;;;;;;;12.88;11.40;;;;;;;21.42;100.00;65237.75;5071446;28;20671;-61
2023/06/16 09:26:16;;;;;;;12.05;10.73;;;;;;;21.49;100.00;65239.81;5070899;28;20279;-61
2023/06/16 09:28:44;;;;;;;14.57;12.95;;;;;;;21.59;100.00;65256.53;5071689;28;20220;-59
2023/06/16 09:31:12;;;;;;;14.88;13.05;;;;;;;21.29;100.00;65222.81;5071055;28;20246;-57
2023/06/16 09:33:39;;;;;;;14.40;13.00;;;;;;;21.07;100.00;65196.47;5053758;28;20587;-61
2023/06/16 09:36:05;;;;;;;15.90;13.63;;;;;;;21.02;100.00;65193.50;5071386;28;20188;-60
2023/06/16 09:38:37;;;;;;;15.70;14.07;;;;;;;20.88;100.00;65178.00;5053238;28;20717;-61
2023/06/16 09:41:16;;;;;;;14.70;13.25;;;;;;;20.73;100.00;65161.41;5070956;28;20307;-61
2023/06/16 09:43:42;;;;;;;13.88;12.40;;;;;;;20.81;100.00;65170.25;5071447;28;20209;-57
2023/06/16 09:46:12;;;;;;;18.10;13.95;;;;;;;20.84;100.00;65173.59;5071315;28;20219;-59
2023/06/16 09:48:51;;;;;;;15.30;13.35;;;;;;;20.82;100.00;65171.38;5053177;28;20212;-57
2023/06/16 09:51:22;;;;;;;12.85;11.48;;;;;;;20.89;100.00;65179.09;5071018;28;20208;-56
2023/06/16 09:53:49;;;;;;;12.43;11.10;;;;;;;20.91;100.00;65183.88;5071172;28;20697;-59
2023/06/16 09:56:16;;;;;;;12.73;10.88;;;;;;;20.84;100.00;65173.59;5070946;28;20674;-62
2023/06/16 09:58:42;;;;;;;14.20;12.77;;;;;;;20.84;100.00;65171.03;5071132;28;20277;-60
2023/06/16 10:01:15;;;;;;;17.42;12.23;;;;;;;20.93;100.00;65181.53;5052668;28;20201;-61
2023/06/16 10:03:43;;;;;;;13.95;11.25;;;;;;;20.80;100.00;65169.16;5071024;28;20209;-61
2023/06/16 10:06:24;;;;;;;13.23;11.82;;;;;;;20.78;100.00;65166.94;5071012;28;20221;-57
2023/06/16 10:08:52;;;;;;;13.98;11.82;;;;;;;20.70;100.00;65160.69;5070738;28;20212;-56
2023/06/16 10:11:19;;;;;;;14.73;12.15;;;;;;;20.78;100.00;65166.94;5070763;28;20670;-57
2023/06/16 10:13:53;;;;;;;14.60;12.35;;;;;;;20.84;100.00;65174.16;5051968;28;20243;-58
2023/06/16 10:16:23;;;;;;;13.43;12.02;;;;;;;21.11;100.00;65203.44;5068936;28;20194;-57
2023/06/16 10:18:51;;;;;;;15.65;12.00;;;;;;;21.61;100.00;65258.75;5053063;28;20221;-57
2023/06/16 10:21:18;;;;;;;13.05;11.57;;;;;;;21.80;100.00;65279.22;5074230;28;20220;-58
2023/06/16 10:23:43;;;;;;;13.00;11.57;;;;;;;21.67;100.00;65260.25;5074497;28;20303;-58
2023/06/16 10:26:11;;;;;;;15.35;11.85;;;;;;;21.71;100.00;65269.81;5074170;28;20305;-57
2023/06/16 10:28:37;;;;;;;12.38;10.73;;;;;;;21.74;100.00;65273.13;5074364;28;20224;-58
2023/06/16 10:31:04;;;;;;;12.85;11.10;;;;;;;21.63;100.00;65260.94;5074291;28;20201;-57
2023/06/16 10:33:53;;;;;;;11.65;10.55;;;;;;;21.71;100.00;65266.69;5072562;28;20694;-56
2023/06/16 10:36:31;;;;;;;9.73;8.77;;;;;;;21.68;100.00;65263.38;5073995;28;20678;-58
2023/06/16 10:39:15;;;;;;;10.85;9.75;;;;;;;21.81;100.00;65279.78;5074235;28;20299;-59
2023/06/16 10:42:00;;;;;;;10.77;9.55;;;;;;;21.87;100.00;65283.88;5055640;28;20648;-57
2023/06/16 10:44:29;;;;;;;11.48;10.38;;;;;;;21.87;100.00;65287.00;5074041;28;20216;-59
2023/06/16 10:47:10;;;;;;;11.10;10.02;;;;;;;21.82;99.87;65281.44;5055637;28;20342;-58
2023/06/16 10:49:50;;;;;;;11.02;9.68;;;;;;;21.80;100.00;65276.66;5055656;28;20212;-57
2023/06/16 10:52:30;;;;;;;11.73;10.48;;;;;;;21.84;100.00;65280.53;5073848;28;20212;-57
2023/06/16 10:54:56;;;;;;;11.80;10.57;;;;;;;22.03;98.75;65304.13;5073450;28;20215;-58
2023/06/16 10:57:26;;;;;;;11.65;9.75;;;;;;;22.13;96.62;65315.19;5073470;28;20213;-57
2023/06/16 10:59:56;;;;;;;10.82;9.25;;;;;;;22.21;97.25;65318.91;5073273;28;20201;-57
2023/06/16 11:02:30;;;;;;;9.57;8.65;;;;;;;22.49;93.63;65352.47;5073738;28;20205;-61
2023/06/16 11:05:07;;;;;;;9.80;8.77;;;;;;;22.46;93.30;65349.72;5073523;28;20350;-58
2023/06/16 11:07:43;;;;;;;12.35;8.75;;;;;;;22.26;94.10;65327.56;5073365;28;20698;-57
2023/06/16 11:10:17;;;;;;;13.50;9.63;;;;;;;22.57;94.90;65363.91;5073206;28;20208;-58
2023/06/16 11:12:42;;;;;;;12.13;8.95;;;;;;;22.70;93.30;65375.75;5073313;28;20288;-58
2023/06/16 11:15:09;;;;;;;9.82;8.82;;;;;;;22.96;93.83;65407.13;5073398;28;20291;-57